createdAt,value
2023-01-18T00:00:35.293Z,2.90
2023-01-18T00:03:02.559Z,2.97
2023-01-18T00:05:30.271Z,2.65
2023-01-18T00:07:57.487Z,2.47
2023-01-18T00:10:24.695Z,2.85
2023-01-18T00:12:51.858Z,3.25
2023-01-18T00:15:19.319Z,2.70
2023-01-18T00:17:51.705Z,2.85
2023-01-18T00:20:24.039Z,3.08
2023-01-18T00:22:51.509Z,2.60
2023-01-18T00:25:19.908Z,2.80
2023-01-18T00:27:48.582Z,2.78
2023-01-18T00:30:23.120Z,2.55
2023-01-18T00:32:53.623Z,2.33
2023-01-18T00:35:22.257Z,2.85
2023-01-18T00:37:50.159Z,2.75
2023-01-18T00:40:18.157Z,2.70
2023-01-18T00:43:03.747Z,3.03
2023-01-18T00:45:30.964Z,2.60
2023-01-18T00:47:58.331Z,3.30
2023-01-18T00:50:25.713Z,2.95
2023-01-18T00:52:56.929Z,3.17
2023-01-18T00:55:24.482Z,2.92
2023-01-18T00:57:51.739Z,3.25
2023-01-18T01:00:19.023Z,2.92
2023-01-18T01:02:46.307Z,3.17
2023-01-18T01:05:36.906Z,2.90
2023-01-18T01:08:04.690Z,3.05
2023-01-18T01:10:33.151Z,3.65
2023-01-18T01:13:18.856Z,3.95
2023-01-18T01:16:04.727Z,3.90
2023-01-18T01:18:50.324Z,3.00
2023-01-18T01:21:35.838Z,3.55
2023-01-18T01:24:21.598Z,3.00
2023-01-18T01:26:48.783Z,3.10
2023-01-18T01:29:16.443Z,3.03
2023-01-18T01:31:43.707Z,3.65
2023-01-18T01:34:10.921Z,3.83
2023-01-18T01:36:38.168Z,3.30
2023-01-18T01:39:07.034Z,3.40
2023-01-18T01:41:34.696Z,3.08
2023-01-18T01:44:04.653Z,3.72
2023-01-18T01:46:54.485Z,3.15
2023-01-18T01:49:42.393Z,3.58
2023-01-18T01:52:11.260Z,3.10
2023-01-18T01:55:04.627Z,2.97
2023-01-18T01:57:43.430Z,3.30
2023-01-18T02:00:14.917Z,2.95
2023-01-18T02:02:43.477Z,3.00
2023-01-18T02:05:12.198Z,2.58
2023-01-18T02:07:39.454Z,2.83
2023-01-18T02:10:07.668Z,2.67
2023-01-18T02:12:35.421Z,2.40
2023-01-18T02:15:02.668Z,2.38
2023-01-18T02:17:36.911Z,2.67
2023-01-18T02:20:24.212Z,2.55
2023-01-18T02:23:15.577Z,2.03
2023-01-18T02:25:57.832Z,2.47
2023-01-18T02:28:32.915Z,2.70
2023-01-18T02:31:08.969Z,2.35
2023-01-18T02:33:47.053Z,2.47
2023-01-18T02:36:23.145Z,2.75
2023-01-18T02:38:50.339Z,2.65
2023-01-18T02:41:59.254Z,2.65
2023-01-18T02:44:58.285Z,2.65
2023-01-18T02:47:25.495Z,3.00
2023-01-18T02:49:52.676Z,2.50
2023-01-18T02:52:40.239Z,2.58
2023-01-18T02:55:38.504Z,2.33
2023-01-18T02:58:09.738Z,2.45
2023-01-18T03:00:37.923Z,2.20
2023-01-18T03:03:06.129Z,2.42
2023-01-18T03:05:34.388Z,2.20
2023-01-18T03:08:09.956Z,1.90
2023-01-18T03:10:42.540Z,2.60
2023-01-18T03:13:15.211Z,1.90
2023-01-18T03:15:45.219Z,2.42
2023-01-18T03:18:13.998Z,1.98
2023-01-18T03:20:43.044Z,2.40
2023-01-18T03:23:38.802Z,1.90
2023-01-18T03:26:10.805Z,1.80
2023-01-18T03:29:03.988Z,2.00
2023-01-18T03:32:07.086Z,1.88
2023-01-18T03:34:40.418Z,1.90
2023-01-18T03:37:10.459Z,1.80
2023-01-18T03:39:46.649Z,1.90
2023-01-18T03:42:23.243Z,1.90
2023-01-18T03:45:07.627Z,1.67
2023-01-18T03:47:34.821Z,1.90
2023-01-18T03:50:02.051Z,1.83
2023-01-18T03:52:45.060Z,1.75
2023-01-18T03:55:24.336Z,1.92
2023-01-18T03:57:55.984Z,1.80
2023-01-18T04:00:23.233Z,1.98
2023-01-18T04:02:50.514Z,2.13
2023-01-18T04:05:17.999Z,1.75
2023-01-18T04:07:45.183Z,2.00
2023-01-18T04:10:12.374Z,1.90
2023-01-18T04:12:39.586Z,1.80
2023-01-18T04:15:07.259Z,1.98
2023-01-18T04:17:34.443Z,1.60
2023-01-18T04:20:01.707Z,1.90
2023-01-18T04:22:28.891Z,1.90
2023-01-18T04:24:56.091Z,1.90
2023-01-18T04:27:25.024Z,2.08
2023-01-18T04:29:52.355Z,1.80
2023-01-18T04:32:19.556Z,1.80
2023-01-18T04:34:46.775Z,1.65
2023-01-18T04:37:13.986Z,1.98
2023-01-18T04:39:41.164Z,2.10
2023-01-18T04:42:08.438Z,2.25
2023-01-18T04:44:35.613Z,1.67
2023-01-18T04:47:03.158Z,1.90
2023-01-18T04:49:30.359Z,2.10
2023-01-18T04:51:57.583Z,2.17
2023-01-18T04:54:25.292Z,2.05
2023-01-18T04:56:52.499Z,2.10
2023-01-18T04:59:19.810Z,3.08
2023-01-18T05:01:47.058Z,6.40
2023-01-18T05:04:14.746Z,3.60
2023-01-18T05:06:41.924Z,2.80
2023-01-18T05:09:11.519Z,2.22
2023-01-18T05:11:38.740Z,2.00
2023-01-18T05:14:05.921Z,2.33
2023-01-18T05:16:33.228Z,1.90
2023-01-18T05:19:00.488Z,1.92
2023-01-18T05:21:28.589Z,1.80
2023-01-18T05:23:55.757Z,1.77
2023-01-18T05:26:23.560Z,1.90
2023-01-18T05:28:50.863Z,2.22
2023-01-18T05:31:20.984Z,2.17
2023-01-18T05:33:48.375Z,2.08
2023-01-18T05:36:15.683Z,2.08
2023-01-18T05:38:42.969Z,2.13
2023-01-18T05:41:10.169Z,2.20
2023-01-18T05:43:39.061Z,2.60
2023-01-18T05:46:06.452Z,2.30
2023-01-18T05:48:33.788Z,2.40
2023-01-18T05:51:00.975Z,2.55
2023-01-18T05:53:28.172Z,2.65
2023-01-18T05:55:59.854Z,2.22
2023-01-18T05:58:27.413Z,2.35
2023-01-18T06:00:54.842Z,2.50
2023-01-18T06:03:22.360Z,2.13
2023-01-18T06:05:51.295Z,2.40
2023-01-18T06:08:18.573Z,2.53
2023-01-18T06:10:55.232Z,2.22
2023-01-18T06:13:23.091Z,2.47
2023-01-18T06:15:51.794Z,2.55
2023-01-18T06:18:19.079Z,2.92
2023-01-18T06:20:46.270Z,2.75
2023-01-18T06:23:13.478Z,2.20
2023-01-18T06:25:40.651Z,2.75
2023-01-18T06:28:07.838Z,2.90
2023-01-18T06:30:35.021Z,3.30
2023-01-18T06:33:06.689Z,3.45
2023-01-18T06:35:34.451Z,3.22
2023-01-18T06:38:02.295Z,3.05
2023-01-18T06:40:29.613Z,2.55
2023-01-18T06:42:57.296Z,2.45
2023-01-18T06:45:25.844Z,2.70
2023-01-18T06:47:53.225Z,3.25
2023-01-18T06:50:20.455Z,3.00
2023-01-18T06:52:47.836Z,2.60
2023-01-18T06:55:15.415Z,2.97
2023-01-18T06:57:42.644Z,2.35
2023-01-18T07:00:11.142Z,2.55
2023-01-18T07:02:38.381Z,2.65
2023-01-18T07:05:05.841Z,2.42
2023-01-18T07:07:33.126Z,2.90
2023-01-18T07:10:00.319Z,2.28
2023-01-18T07:12:27.571Z,2.42
2023-01-18T07:14:54.794Z,2.65
2023-01-18T07:17:21.952Z,2.28
2023-01-18T07:19:49.150Z,2.20
2023-01-18T07:22:16.360Z,2.15
2023-01-18T07:24:43.552Z,2.00
2023-01-18T07:27:10.783Z,2.03
2023-01-18T07:29:38.013Z,1.90
2023-01-18T07:32:05.325Z,2.08
2023-01-18T07:34:32.673Z,1.77
2023-01-18T07:37:01.379Z,2.10
2023-01-18T07:39:28.554Z,2.08
2023-01-18T07:41:55.727Z,1.92
2023-01-18T07:44:24.018Z,1.70
2023-01-18T07:46:51.200Z,1.73
2023-01-18T07:49:18.388Z,1.95
2023-01-18T07:51:45.562Z,1.70
2023-01-18T07:54:12.978Z,1.60
2023-01-18T07:56:40.204Z,1.80
2023-01-18T07:59:07.482Z,1.65
2023-01-18T08:01:34.755Z,1.80
2023-01-18T08:04:02.040Z,1.70
2023-01-18T08:06:29.292Z,1.70
2023-01-18T08:08:56.920Z,1.70
2023-01-18T08:11:24.349Z,1.88
2023-01-18T08:13:52.799Z,1.80
2023-01-18T08:16:20.170Z,2.05
2023-01-18T08:18:50.613Z,1.60
2023-01-18T08:21:17.878Z,1.88
2023-01-18T08:23:45.067Z,2.00
2023-01-18T08:26:13.673Z,1.80
2023-01-18T08:28:41.544Z,1.60
2023-01-18T08:31:14.564Z,2.00
2023-01-18T08:33:45.276Z,1.83
2023-01-18T08:36:14.284Z,1.55
2023-01-18T08:38:41.482Z,1.88
2023-01-18T08:41:08.710Z,3.40
2023-01-18T08:43:36.049Z,2.63
2023-01-18T08:46:03.367Z,1.73
2023-01-18T08:48:30.662Z,3.20
2023-01-18T08:51:02.173Z,2.00
2023-01-18T08:53:30.171Z,3.63
2023-01-18T08:55:57.474Z,4.35
2023-01-18T08:58:24.738Z,2.80
2023-01-18T09:00:53.364Z,2.50
2023-01-18T09:03:21.513Z,2.17
2023-01-18T09:05:49.301Z,4.00
2023-01-18T09:08:17.534Z,2.30
2023-01-18T09:10:44.947Z,2.15
2023-01-18T09:13:12.282Z,2.25
2023-01-18T09:15:39.563Z,2.67
2023-01-18T09:18:08.050Z,1.73
2023-01-18T09:20:36.163Z,2.35
2023-01-18T09:23:07.304Z,2.08
2023-01-18T09:25:36.374Z,2.17
2023-01-18T09:28:04.318Z,2.55
2023-01-18T09:30:31.557Z,2.30
2023-01-18T09:32:59.191Z,1.70
2023-01-18T09:35:26.795Z,1.80
2023-01-18T09:37:54.915Z,2.20
2023-01-18T09:40:23.088Z,2.20
2023-01-18T09:42:51.309Z,2.15
2023-01-18T09:45:32.449Z,2.20
2023-01-18T09:48:02.837Z,2.08
2023-01-18T09:50:30.040Z,1.73
2023-01-18T09:53:04.116Z,2.00
2023-01-18T09:56:20.713Z,1.85
2023-01-18T09:58:54.564Z,2.10
2023-01-18T10:01:23.567Z,2.08
2023-01-18T10:03:55.552Z,2.08
2023-01-18T10:06:47.711Z,1.88
2023-01-18T10:09:19.619Z,2.45
2023-01-18T10:11:55.339Z,2.40
2023-01-18T10:14:41.175Z,2.00
2023-01-18T10:17:20.620Z,2.55
2023-01-18T10:19:48.252Z,1.90
2023-01-18T10:22:25.593Z,2.30
2023-01-18T10:24:57.506Z,3.10
2023-01-18T10:27:49.030Z,1.73
2023-01-18T10:30:31.384Z,1.52
2023-01-18T10:33:00.613Z,1.80
2023-01-18T10:35:30.272Z,1.63
2023-01-18T10:38:01.053Z,1.75
2023-01-18T10:40:28.396Z,2.60
2023-01-18T10:42:59.574Z,2.20
2023-01-18T10:45:29.778Z,1.63
2023-01-18T10:47:58.419Z,1.60
2023-01-18T10:50:36.752Z,2.00
2023-01-18T10:53:21.863Z,1.52
2023-01-18T10:56:10.185Z,1.60
2023-01-18T10:58:50.246Z,1.60
2023-01-18T11:01:24.947Z,1.58
2023-01-18T11:03:52.843Z,2.05
2023-01-18T11:06:22.675Z,1.95
2023-01-18T11:08:50.060Z,1.90
2023-01-18T11:11:19.644Z,1.67
2023-01-18T11:13:48.328Z,1.77
2023-01-18T11:16:22.561Z,1.58
2023-01-18T11:18:56.538Z,1.98
2023-01-18T11:21:24.406Z,1.42
2023-01-18T11:23:51.909Z,1.80
2023-01-18T11:26:20.191Z,1.90
2023-01-18T11:29:02.836Z,1.90
2023-01-18T11:31:32.111Z,2.15
2023-01-18T11:34:03.815Z,2.47
2023-01-18T11:36:43.724Z,2.40
2023-01-18T11:39:24.740Z,2.50
2023-01-18T11:41:52.282Z,3.47
2023-01-18T11:44:27.218Z,3.30
2023-01-18T11:46:55.560Z,3.05
2023-01-18T11:49:45.137Z,3.15
2023-01-18T11:52:34.491Z,2.88
2023-01-18T11:55:03.401Z,2.53
2023-01-18T11:57:30.869Z,2.42
2023-01-18T11:59:58.928Z,2.70
2023-01-18T12:02:32.052Z,2.50
2023-01-18T12:05:02.109Z,2.47
2023-01-18T12:07:45.982Z,2.58
2023-01-18T12:10:20.032Z,2.63
2023-01-18T12:13:03.709Z,1.63
2023-01-18T12:16:08.270Z,2.05
2023-01-18T12:18:53.714Z,2.38
2023-01-18T12:21:45.853Z,2.17
2023-01-18T12:24:25.044Z,2.10
2023-01-18T12:27:04.854Z,2.05
2023-01-18T12:29:39.496Z,2.42
2023-01-18T12:35:19.071Z,2.17
2023-01-18T12:38:05.657Z,2.25
2023-01-18T12:40:49.071Z,2.20
2023-01-18T12:43:26.490Z,2.40
2023-01-18T12:46:02.638Z,2.47
2023-01-18T12:48:49.703Z,2.53
2023-01-18T12:51:18.671Z,2.28
2023-01-18T12:53:45.962Z,3.20
2023-01-18T12:56:22.812Z,3.10
2023-01-18T12:58:56.324Z,3.10
2023-01-18T13:01:26.427Z,3.45
2023-01-18T13:03:59.077Z,3.20
2023-01-18T13:06:26.267Z,3.63
2023-01-18T13:08:54.987Z,3.30
2023-01-18T13:11:41.527Z,3.38
2023-01-18T13:14:10.822Z,3.45
2023-01-18T13:16:44.347Z,3.50
2023-01-18T13:19:24.912Z,3.30
2023-01-18T13:22:00.252Z,3.70
2023-01-18T13:24:30.286Z,3.95
2023-01-18T13:27:12.274Z,4.70
2023-01-18T13:29:39.815Z,4.40
2023-01-18T13:32:33.502Z,4.30
2023-01-18T13:35:21.139Z,4.35
2023-01-18T13:37:55.909Z,4.10
2023-01-18T13:40:24.332Z,3.22
2023-01-18T13:42:51.683Z,3.72
2023-01-18T13:45:23.501Z,3.53
2023-01-18T13:48:01.297Z,3.42
2023-01-18T13:50:28.956Z,3.78
2023-01-18T13:53:14.467Z,3.53
2023-01-18T13:55:59.974Z,3.75
2023-01-18T13:58:31.373Z,3.75
2023-01-18T14:01:03.436Z,3.50
2023-01-18T14:03:33.433Z,4.40
2023-01-18T14:06:11.391Z,4.07
2023-01-18T14:08:39.939Z,3.60
2023-01-18T14:11:11.625Z,4.00
2023-01-18T14:13:45.002Z,3.53
2023-01-18T14:16:23.097Z,3.60
2023-01-18T14:18:55.711Z,4.10
2023-01-18T14:21:40.960Z,4.05
2023-01-18T14:24:20.552Z,4.00
2023-01-18T14:26:47.758Z,4.18
2023-01-18T14:29:22.334Z,4.10
2023-01-18T14:34:30.023Z,4.88
2023-01-18T14:36:57.587Z,3.80
2023-01-18T14:39:24.985Z,4.60
2023-01-18T14:41:57.327Z,4.68
2023-01-18T14:44:26.985Z,4.22
2023-01-18T14:46:56.085Z,4.70
2023-01-18T14:49:31.009Z,4.15
2023-01-18T14:51:58.691Z,4.82
2023-01-18T14:54:25.995Z,5.10
2023-01-18T14:57:08.216Z,4.72
2023-01-18T14:59:35.856Z,5.20
2023-01-18T15:02:15.707Z,4.57
2023-01-18T15:04:47.287Z,4.50
2023-01-18T15:07:27.616Z,5.05
2023-01-18T15:09:54.813Z,5.47
2023-01-18T15:12:23.547Z,4.97
2023-01-18T15:14:51.335Z,5.00
2023-01-18T15:17:23.714Z,5.07
2023-01-18T15:19:55.847Z,4.65
2023-01-18T15:22:29.319Z,4.93
2023-01-18T15:24:57.743Z,5.00
2023-01-18T15:27:24.984Z,5.28
2023-01-18T15:29:53.913Z,5.55
2023-01-18T15:32:22.432Z,5.85
2023-01-18T15:34:50.419Z,4.95
2023-01-18T15:37:34.210Z,4.90
2023-01-18T15:40:02.240Z,4.65
2023-01-18T15:42:53.689Z,5.10
2023-01-18T15:45:25.769Z,5.47
2023-01-18T15:47:58.521Z,4.78
2023-01-18T15:50:31.160Z,4.55
2023-01-18T15:53:06.311Z,5.03
2023-01-18T15:55:41.099Z,4.80
2023-01-18T15:58:13.243Z,4.50
2023-01-18T16:00:44.515Z,5.20
2023-01-18T16:03:24.203Z,4.82
2023-01-18T16:06:16.972Z,5.80
2023-01-18T16:09:11.938Z,4.80
2023-01-18T16:11:54.244Z,5.63
2023-01-18T16:14:38.302Z,4.57
2023-01-18T16:17:16.397Z,3.95
2023-01-18T16:19:48.689Z,5.15
2023-01-18T16:22:20.195Z,5.20
2023-01-18T16:24:50.908Z,5.38
2023-01-18T16:27:23.090Z,5.13
2023-01-18T16:29:54.815Z,5.45
2023-01-18T16:32:24.793Z,6.00
2023-01-18T16:34:53.250Z,5.40
2023-01-18T16:37:20.724Z,5.43
2023-01-18T16:39:48.875Z,5.18
2023-01-18T16:42:18.209Z,5.20
2023-01-18T16:44:47.160Z,5.40
2023-01-18T16:47:15.646Z,5.57
2023-01-18T16:49:43.976Z,5.90
2023-01-18T16:52:12.857Z,6.15
2023-01-18T16:54:44.488Z,5.80
2023-01-18T16:57:22.451Z,5.60
2023-01-18T16:59:49.978Z,5.60
2023-01-18T17:02:17.386Z,5.70
2023-01-18T17:04:46.394Z,5.72
2023-01-18T17:07:13.719Z,5.90
2023-01-18T17:09:48.243Z,5.75
2023-01-18T17:12:16.311Z,5.10
2023-01-18T17:14:43.514Z,6.63
2023-01-18T17:17:10.967Z,6.28
2023-01-18T17:19:38.251Z,5.28
2023-01-18T17:22:06.387Z,6.20
2023-01-18T17:24:33.633Z,4.95
2023-01-18T17:27:01.330Z,4.97
2023-01-18T17:29:28.549Z,4.55
2023-01-18T17:31:55.749Z,4.47
2023-01-18T17:34:27.938Z,3.92
2023-01-18T17:36:59.785Z,3.58
2023-01-18T17:39:37.401Z,4.13
2023-01-18T17:42:22.274Z,4.18
2023-01-18T17:44:50.655Z,3.05
2023-01-18T17:47:17.870Z,4.00
2023-01-18T17:49:45.077Z,4.20
2023-01-18T17:52:12.272Z,3.92
2023-01-18T17:54:39.461Z,4.10
2023-01-18T17:57:06.658Z,4.65
2023-01-18T17:59:33.823Z,4.57
2023-01-18T18:02:01.065Z,5.65
2023-01-18T18:04:29.699Z,5.47
2023-01-18T18:06:58.479Z,5.40
2023-01-18T18:09:25.831Z,5.57
2023-01-18T18:11:53.188Z,5.20
2023-01-18T18:14:20.420Z,5.78
2023-01-18T18:16:47.690Z,5.22
2023-01-18T18:19:15.038Z,4.95
2023-01-18T18:21:42.836Z,6.32
2023-01-18T18:24:10.016Z,5.63
2023-01-18T18:26:37.248Z,7.15
2023-01-18T18:29:04.575Z,5.47
2023-01-18T18:31:31.825Z,5.80
2023-01-18T18:33:59.059Z,6.32
2023-01-18T18:36:27.292Z,5.85
2023-01-18T18:38:54.700Z,5.95
2023-01-18T18:41:21.904Z,6.07
2023-01-18T18:43:49.112Z,5.50
2023-01-18T18:46:16.405Z,6.28
2023-01-18T18:48:43.752Z,6.28
2023-01-18T18:51:10.980Z,6.95
2023-01-18T18:53:39.200Z,6.45
2023-01-18T18:56:10.084Z,6.53
2023-01-18T18:58:41.121Z,6.35
2023-01-18T19:01:17.197Z,6.55
2023-01-18T19:03:44.544Z,6.50
2023-01-18T19:06:11.804Z,6.18
2023-01-18T19:08:39.028Z,6.35
2023-01-18T19:11:06.280Z,6.00
2023-01-18T19:13:33.476Z,6.22
2023-01-18T19:16:00.740Z,6.53
2023-01-18T19:18:29.029Z,5.93
2023-01-18T19:20:56.373Z,7.28
2023-01-18T19:23:24.663Z,6.65
2023-01-18T19:25:51.943Z,6.50
2023-01-18T19:28:19.153Z,6.80
2023-01-18T19:30:46.380Z,7.07
2023-01-18T19:33:13.764Z,7.95
2023-01-18T19:35:44.733Z,7.80
2023-01-18T19:38:12.563Z,8.43
2023-01-18T19:40:40.008Z,8.77
2023-01-18T19:43:07.174Z,7.93
2023-01-18T19:45:36.023Z,9.07
2023-01-18T19:48:03.567Z,8.55
2023-01-18T19:50:31.027Z,8.55
2023-01-18T19:52:58.603Z,9.57
2023-01-18T19:55:25.995Z,9.63
2023-01-18T19:57:55.401Z,9.45
2023-01-18T20:00:22.640Z,9.98
2023-01-18T20:02:50.092Z,10.63
2023-01-18T20:05:17.388Z,10.05
2023-01-18T20:07:44.648Z,10.20
2023-01-18T20:10:11.844Z,11.07
2023-01-18T20:12:39.076Z,11.48
2023-01-18T20:15:06.644Z,10.88
2023-01-18T20:17:33.869Z,11.02
2023-01-18T20:20:01.083Z,11.40
2023-01-18T20:22:28.295Z,11.20
2023-01-18T20:24:55.530Z,12.07
2023-01-18T20:27:22.759Z,11.65
2023-01-18T20:29:49.915Z,11.63
2023-01-18T20:32:18.070Z,11.98
2023-01-18T20:34:46.790Z,11.98
2023-01-18T20:37:14.649Z,11.70
2023-01-18T20:39:41.871Z,11.68
2023-01-18T20:42:09.108Z,12.05
2023-01-18T20:44:36.636Z,11.93
2023-01-18T20:47:04.000Z,12.43
2023-01-18T20:49:39.075Z,12.13
2023-01-18T20:52:07.150Z,12.40
2023-01-18T20:54:36.252Z,11.82
2023-01-18T20:57:04.940Z,13.20
2023-01-18T20:59:32.158Z,13.43
2023-01-18T21:01:59.542Z,12.65
2023-01-18T21:04:26.924Z,13.27
2023-01-18T21:06:54.308Z,13.95
2023-01-18T21:09:21.483Z,13.73
2023-01-18T21:11:48.774Z,12.70
2023-01-18T21:14:16.075Z,13.90
2023-01-18T21:16:43.497Z,14.20
2023-01-18T21:19:10.740Z,12.50
2023-01-18T21:21:38.081Z,13.57
2023-01-18T21:24:05.532Z,12.45
2023-01-18T21:26:32.724Z,12.95
2023-01-18T21:28:59.941Z,13.55
2023-01-18T21:31:27.223Z,13.00
2023-01-18T21:33:54.634Z,12.82
2023-01-18T21:36:22.913Z,13.48
2023-01-18T21:38:50.360Z,13.27
2023-01-18T21:41:36.546Z,14.48
2023-01-18T21:44:22.219Z,14.43
2023-01-18T21:46:51.037Z,16.25
2023-01-18T21:49:57.596Z,15.63
2023-01-18T21:52:42.656Z,16.35
2023-01-18T21:55:09.911Z,15.93
2023-01-18T21:57:39.096Z,16.45
2023-01-18T22:00:07.132Z,17.52
2023-01-18T22:02:37.058Z,17.88
2023-01-18T22:05:04.553Z,16.90
2023-01-18T22:07:33.794Z,17.00
2023-01-18T22:10:06.566Z,16.70
2023-01-18T22:12:35.240Z,17.15
2023-01-18T22:15:04.266Z,18.10
2023-01-18T22:17:31.619Z,18.50
2023-01-18T22:19:59.732Z,17.98
2023-01-18T22:22:27.080Z,18.73
2023-01-18T22:24:54.311Z,18.30
2023-01-18T22:27:21.577Z,18.95
2023-01-18T22:29:48.838Z,18.08
2023-01-18T22:32:16.334Z,18.77
2023-01-18T22:34:43.692Z,18.80
2023-01-18T22:37:10.928Z,18.83
2023-01-18T22:39:38.124Z,19.15
2023-01-18T22:42:05.353Z,19.17
2023-01-18T22:44:32.855Z,19.60
2023-01-18T22:47:00.206Z,19.33
2023-01-18T22:49:27.407Z,20.52
2023-01-18T22:51:54.592Z,21.88
2023-01-18T22:54:22.836Z,20.83
2023-01-18T22:56:50.070Z,20.35
2023-01-18T22:59:17.495Z,20.20
2023-01-18T23:01:44.889Z,19.98
2023-01-18T23:04:12.194Z,22.58
2023-01-18T23:06:45.589Z,21.05
2023-01-18T23:09:14.300Z,22.75
2023-01-18T23:11:41.523Z,22.73
2023-01-18T23:14:27.503Z,20.92
2023-01-18T23:17:13.269Z,21.98
2023-01-18T23:19:40.477Z,21.98
2023-01-18T23:22:07.772Z,21.02
2023-01-18T23:24:35.864Z,21.05
2023-01-18T23:27:07.056Z,18.90
2023-01-18T23:29:34.277Z,17.63
2023-01-18T23:32:01.512Z,18.52
2023-01-18T23:34:28.785Z,17.55
2023-01-18T23:36:55.986Z,16.63
2023-01-18T23:39:41.566Z,16.02
2023-01-18T23:42:27.523Z,16.10
2023-01-18T23:45:13.134Z,17.38
2023-01-18T23:47:59.100Z,16.80
2023-01-18T23:50:45.340Z,18.23
2023-01-18T23:53:31.455Z,17.65
2023-01-18T23:55:59.037Z,17.52
2023-01-18T23:58:26.323Z,18.35
